createdAt,value
2023-05-09T05:01:10.675Z,25.00
2023-05-09T05:02:10.569Z,25.00
2023-05-09T05:03:10.612Z,25.00
2023-05-09T05:04:10.666Z,25.00
2023-05-09T05:05:12.404Z,25.00
2023-05-09T05:06:10.717Z,25.00
2023-05-09T05:07:10.715Z,0.00
2023-05-09T05:08:10.679Z,0.00
2023-05-09T05:09:10.703Z,0.00
2023-05-09T05:10:10.685Z,0.00
2023-05-09T05:11:10.657Z,0.00
2023-05-09T05:12:10.684Z,0.00
2023-05-09T05:13:10.687Z,0.00
2023-05-09T05:14:10.620Z,0.00
2023-05-09T05:15:10.635Z,0.00
2023-05-09T05:16:10.672Z,0.00
2023-05-09T05:17:10.706Z,0.00
2023-05-09T05:18:10.710Z,0.00
2023-05-09T05:19:10.615Z,0.00
2023-05-09T05:20:10.645Z,0.00
2023-05-09T05:21:10.617Z,0.00
2023-05-09T05:22:10.667Z,0.00
2023-05-09T05:23:10.781Z,0.00
2023-05-09T05:24:10.749Z,0.00
2023-05-09T05:25:10.825Z,0.00
2023-05-09T05:26:10.891Z,0.00
2023-05-09T05:27:10.937Z,0.00
2023-05-09T05:28:11.004Z,0.00
2023-05-09T05:29:11.078Z,0.00
2023-05-09T05:30:11.069Z,0.00
2023-05-09T05:31:11.078Z,0.00
2023-05-09T05:32:11.036Z,0.00
2023-05-09T05:33:11.284Z,0.00
2023-05-09T05:34:11.093Z,0.00
2023-05-09T05:35:10.999Z,0.00
2023-05-09T05:36:11.042Z,0.00
2023-05-09T05:37:11.020Z,0.00
2023-05-09T05:38:11.003Z,0.00
2023-05-09T05:39:11.009Z,0.00
2023-05-09T05:40:11.135Z,0.00
2023-05-09T05:41:11.269Z,0.00
2023-05-09T05:42:11.192Z,0.00
2023-05-09T05:43:11.501Z,0.00
2023-05-09T05:44:11.206Z,0.00
2023-05-09T05:45:11.195Z,0.00
2023-05-09T05:46:11.252Z,0.00
2023-05-09T05:47:11.205Z,0.00
2023-05-09T05:48:11.185Z,0.00
2023-05-09T05:49:11.220Z,0.00
2023-05-09T05:50:11.267Z,0.00
2023-05-09T05:51:11.135Z,0.00
2023-05-09T05:52:11.133Z,0.00
2023-05-09T05:53:11.223Z,25.00
2023-05-09T05:54:11.215Z,28.50
2023-05-09T05:55:11.166Z,29.02
2023-05-09T05:56:11.276Z,30.57
2023-05-09T05:57:11.249Z,39.44
2023-05-09T05:58:11.353Z,33.72
2023-05-09T05:59:13.089Z,34.13
2023-05-09T06:00:11.451Z,35.14
2023-05-09T06:01:11.375Z,39.05
2023-05-09T06:02:11.452Z,40.06
2023-05-09T06:03:12.009Z,47.31
2023-05-09T06:04:11.555Z,43.07
2023-05-09T06:05:11.576Z,43.65
2023-05-09T06:06:11.489Z,43.80
2023-05-09T06:07:14.325Z,46.39
2023-05-09T06:08:11.488Z,45.48
2023-05-09T06:09:11.513Z,45.33
2023-05-09T06:10:11.516Z,45.71
2023-05-09T06:11:11.609Z,46.09
2023-05-09T06:12:11.436Z,45.67
2023-05-09T06:13:11.474Z,48.09
2023-05-09T06:14:11.456Z,49.28
2023-05-09T06:15:11.468Z,49.27
2023-05-09T06:16:18.454Z,46.93
2023-05-09T06:17:12.479Z,47.31
2023-05-09T06:18:11.545Z,47.18
2023-05-09T06:19:11.380Z,48.22
2023-05-09T06:20:11.443Z,49.51
2023-05-09T06:21:11.457Z,47.79
2023-05-09T06:22:11.400Z,49.61
2023-05-09T06:23:11.336Z,53.87
2023-05-09T06:24:19.908Z,55.09
2023-05-09T06:25:12.767Z,55.53
2023-05-09T06:26:11.383Z,56.30
2023-05-09T06:27:11.918Z,56.57
2023-05-09T06:28:11.501Z,52.24
2023-05-09T06:29:11.377Z,51.19
2023-05-09T06:30:24.777Z,46.15
2023-05-09T06:31:12.410Z,46.42
2023-05-09T06:32:11.351Z,46.40
2023-05-09T06:33:11.295Z,47.42
2023-05-09T06:34:11.529Z,46.14
2023-05-09T06:35:11.459Z,51.62
2023-05-09T06:36:11.719Z,48.87
2023-05-09T06:37:11.393Z,46.98
2023-05-09T06:38:11.299Z,48.66
2023-05-09T06:39:11.309Z,43.42
2023-05-09T06:40:11.276Z,43.60
2023-05-09T06:41:11.388Z,43.94
2023-05-09T06:42:11.280Z,44.56
2023-05-09T06:43:11.256Z,42.03
2023-05-09T06:44:11.699Z,40.93
2023-05-09T06:45:11.257Z,34.96
2023-05-09T06:46:11.274Z,32.72
2023-05-09T06:47:11.246Z,25.00
2023-05-09T06:48:11.193Z,29.59
2023-05-09T06:49:11.251Z,30.91
2023-05-09T06:50:11.265Z,32.98
2023-05-09T06:51:11.209Z,31.13
2023-05-09T06:52:11.196Z,31.76
2023-05-09T06:53:11.294Z,30.12
2023-05-09T06:54:11.436Z,27.37
2023-05-09T06:55:11.267Z,29.85
2023-05-09T06:56:11.332Z,27.31
2023-05-09T06:57:11.510Z,26.84
2023-05-09T06:58:11.870Z,27.01
2023-05-09T06:59:11.317Z,27.27
2023-05-09T07:00:11.343Z,27.01
2023-05-09T07:01:11.448Z,31.42
2023-05-09T07:02:11.322Z,35.84
2023-05-09T07:03:11.345Z,49.11
2023-05-09T07:04:11.310Z,39.15
2023-05-09T07:05:11.429Z,34.16
2023-05-09T07:06:11.831Z,34.40
2023-05-09T07:07:11.260Z,33.80
2023-05-09T07:08:11.868Z,34.24
2023-05-09T07:09:11.375Z,32.10
2023-05-09T07:10:12.574Z,30.59
2023-05-09T07:11:11.241Z,33.93
2023-05-09T07:12:11.268Z,35.36
2023-05-09T07:13:12.091Z,36.73
2023-05-09T07:14:11.354Z,44.17
2023-05-09T07:15:11.333Z,57.59
2023-05-09T07:16:11.336Z,49.31
2023-05-09T07:17:22.670Z,44.47
2023-05-09T07:18:12.253Z,44.63
2023-05-09T07:19:11.453Z,44.81
2023-05-09T07:20:11.261Z,39.55
2023-05-09T07:21:11.228Z,39.85
2023-05-09T07:22:11.193Z,39.43
2023-05-09T07:23:11.238Z,37.28
2023-05-09T07:24:11.134Z,37.30
2023-05-09T07:25:11.283Z,41.29
2023-05-09T07:26:11.217Z,37.50
2023-05-09T07:27:11.118Z,37.11
2023-05-09T07:28:11.094Z,37.65
2023-05-09T07:29:11.138Z,39.99
2023-05-09T07:30:11.129Z,40.42
2023-05-09T07:31:11.241Z,35.48
2023-05-09T07:32:11.220Z,25.00
2023-05-09T07:33:11.371Z,25.12
2023-05-09T07:34:11.276Z,31.04
2023-05-09T07:35:11.354Z,38.36
2023-05-09T07:36:11.556Z,41.88
2023-05-09T07:37:12.980Z,38.04
2023-05-09T07:38:11.529Z,35.77
2023-05-09T07:39:11.465Z,36.09
2023-05-09T07:40:11.473Z,38.68
2023-05-09T07:41:11.533Z,38.96
2023-05-09T07:42:11.411Z,39.15
2023-05-09T07:43:11.397Z,45.76
2023-05-09T07:44:11.376Z,44.33
2023-05-09T07:45:11.386Z,51.61
2023-05-09T07:46:11.435Z,52.10
2023-05-09T07:47:11.372Z,53.94
2023-05-09T07:48:11.365Z,57.76
2023-05-09T07:49:11.868Z,63.53
2023-05-09T07:50:11.882Z,65.97
2023-05-09T07:51:11.525Z,70.90
2023-05-09T07:52:11.303Z,70.49
2023-05-09T07:53:11.633Z,74.61
2023-05-09T07:54:11.551Z,77.83
2023-05-09T07:55:11.350Z,75.60
2023-05-09T07:56:11.334Z,75.90
2023-05-09T07:57:11.361Z,76.03
2023-05-09T07:58:11.307Z,77.43
2023-05-09T07:59:11.278Z,78.56
2023-05-09T08:00:11.300Z,79.95
2023-05-09T08:01:11.248Z,79.39
2023-05-09T08:02:11.297Z,81.12
2023-05-09T08:03:11.471Z,76.33
2023-05-09T08:04:11.316Z,74.74
2023-05-09T08:05:11.231Z,72.42
2023-05-09T08:06:11.277Z,69.60
2023-05-09T08:07:11.319Z,69.98
2023-05-09T08:08:11.349Z,70.53
2023-05-09T08:09:11.375Z,69.12
2023-05-09T08:10:11.457Z,73.08
2023-05-09T08:11:11.440Z,74.69
2023-05-09T08:12:11.518Z,75.91
2023-05-09T08:13:11.654Z,80.65
2023-05-09T08:14:11.855Z,82.00
2023-05-09T08:15:11.698Z,79.37
2023-05-09T08:16:11.739Z,79.51
2023-05-09T08:17:11.694Z,76.83
2023-05-09T08:18:11.704Z,77.55
2023-05-09T08:19:11.889Z,81.04
2023-05-09T08:20:11.758Z,82.21
2023-05-09T08:21:11.854Z,83.56
2023-05-09T08:22:11.826Z,82.35
2023-05-09T08:23:11.891Z,80.37
2023-05-09T08:24:11.885Z,82.53
2023-05-09T08:25:11.989Z,81.73
2023-05-09T08:26:11.983Z,80.08
2023-05-09T08:27:11.990Z,79.85
2023-05-09T08:28:12.130Z,78.70
2023-05-09T08:29:12.150Z,80.66
2023-05-09T08:30:12.109Z,84.35
2023-05-09T08:31:12.174Z,82.06
2023-05-09T08:32:12.122Z,91.15
2023-05-09T08:33:12.232Z,93.53
2023-05-09T08:34:12.880Z,94.05
2023-05-09T08:35:12.322Z,95.85
2023-05-09T08:36:12.185Z,99.93
2023-05-09T08:37:14.957Z,108.94
2023-05-09T08:38:12.128Z,124.63
2023-05-09T08:39:12.121Z,122.28
2023-05-09T08:40:12.198Z,126.68
2023-05-09T08:41:12.126Z,133.73
2023-05-09T08:42:13.920Z,137.83
2023-05-09T08:43:12.091Z,138.20
2023-05-09T08:44:12.157Z,139.42
2023-05-09T08:45:12.180Z,144.06
2023-05-09T08:46:12.102Z,146.62
2023-05-09T08:47:12.085Z,160.14
2023-05-09T08:48:12.226Z,161.75
2023-05-09T08:49:12.081Z,165.13
2023-05-09T08:50:12.249Z,172.47
2023-05-09T08:51:12.059Z,177.64
2023-05-09T08:52:12.083Z,178.64
2023-05-09T08:53:12.076Z,179.45
2023-05-09T08:54:11.995Z,180.89
2023-05-09T08:55:11.995Z,183.50
2023-05-09T08:56:12.110Z,189.77
2023-05-09T08:57:11.981Z,193.56
2023-05-09T08:58:12.015Z,194.63
2023-05-09T08:59:12.070Z,196.29
2023-05-09T09:00:12.013Z,204.30
2023-05-09T09:01:12.106Z,201.36
2023-05-09T09:02:12.020Z,202.66
2023-05-09T09:03:11.980Z,203.98
2023-05-09T09:04:11.934Z,201.25
2023-05-09T09:05:23.809Z,203.62
2023-05-09T09:06:12.943Z,203.82
2023-05-09T09:07:11.926Z,203.82
2023-05-09T09:08:11.975Z,204.08
2023-05-09T09:09:11.929Z,202.97
2023-05-09T09:10:11.929Z,199.59
2023-05-09T09:11:11.904Z,193.17
2023-05-09T09:12:11.869Z,189.58
2023-05-09T09:13:11.943Z,191.23
2023-05-09T09:14:11.867Z,200.27
2023-05-09T09:15:11.872Z,193.31
2023-05-09T09:16:11.854Z,191.32
2023-05-09T09:17:11.959Z,187.07
2023-05-09T09:18:11.852Z,186.40
2023-05-09T09:19:11.863Z,181.92
2023-05-09T09:20:11.893Z,182.32
2023-05-09T09:21:11.826Z,175.33
2023-05-09T09:22:11.831Z,183.24
2023-05-09T09:23:11.990Z,175.34
2023-05-09T09:24:11.875Z,168.92
2023-05-09T09:25:11.824Z,159.57
2023-05-09T09:26:11.984Z,146.99
2023-05-09T09:27:11.936Z,137.13
2023-05-09T09:28:11.910Z,124.50
2023-05-09T09:29:11.872Z,119.73
2023-05-09T09:30:11.921Z,129.99
2023-05-09T09:31:11.957Z,114.70
2023-05-09T09:32:11.990Z,99.64
2023-05-09T09:33:12.119Z,83.85
2023-05-09T09:34:11.966Z,55.63
2023-05-09T09:35:12.000Z,53.00
2023-05-09T09:36:12.097Z,42.85
2023-05-09T09:37:12.017Z,23.62
2023-05-09T09:38:12.046Z,25.00
2023-05-09T09:39:12.130Z,31.66
2023-05-09T09:40:12.310Z,32.92
2023-05-09T09:41:12.101Z,32.79
2023-05-09T09:42:12.125Z,29.02
2023-05-09T09:43:12.117Z,25.00
2023-05-09T09:44:12.189Z,25.00
2023-05-09T09:45:12.172Z,23.72
2023-05-09T09:46:12.326Z,42.61
2023-05-09T09:47:12.231Z,42.66
2023-05-09T09:48:12.334Z,42.24
2023-05-09T09:49:12.175Z,29.93
2023-05-09T09:50:12.293Z,22.39
2023-05-09T09:51:12.285Z,8.58
2023-05-09T09:52:12.177Z,16.04
2023-05-09T09:53:12.157Z,29.30
2023-05-09T09:54:12.331Z,24.33
2023-05-09T09:55:12.172Z,29.31
2023-05-09T09:56:12.126Z,28.96
2023-05-09T09:57:12.156Z,54.14
2023-05-09T09:58:12.147Z,57.36
2023-05-09T09:59:14.971Z,71.29
2023-05-09T10:00:12.293Z,61.94
2023-05-09T10:01:12.196Z,68.33
2023-05-09T10:02:12.127Z,46.28
2023-05-09T10:03:12.246Z,68.94
2023-05-09T10:04:12.194Z,75.79
2023-05-09T10:05:12.283Z,76.07
2023-05-09T10:06:12.184Z,76.65
2023-05-09T10:07:14.838Z,68.85
2023-05-09T10:08:12.093Z,68.87
2023-05-09T10:09:12.128Z,53.29
2023-05-09T10:10:12.150Z,48.86
2023-05-09T10:11:12.090Z,54.05
2023-05-09T10:12:12.107Z,59.86
2023-05-09T10:13:12.284Z,42.68
2023-05-09T10:14:12.906Z,39.00
2023-05-09T10:15:12.118Z,54.49
2023-05-09T10:16:12.175Z,58.31
2023-05-09T10:17:12.211Z,62.34
2023-05-09T10:18:12.566Z,90.53
2023-05-09T10:19:12.158Z,113.28
2023-05-09T10:20:12.293Z,119.16
2023-05-09T10:21:12.113Z,121.46
2023-05-09T10:22:12.020Z,114.97
2023-05-09T10:23:12.080Z,116.48
2023-05-09T10:24:12.040Z,110.00
2023-05-09T10:25:11.975Z,100.68
2023-05-09T10:26:12.007Z,81.85
2023-05-09T10:27:11.977Z,52.10
2023-05-09T10:28:11.965Z,35.17
2023-05-09T10:29:11.961Z,60.43
2023-05-09T10:30:11.972Z,55.28
2023-05-09T10:31:12.010Z,47.56
2023-05-09T10:32:11.953Z,34.90
2023-05-09T10:33:12.038Z,38.25
2023-05-09T10:34:12.000Z,45.44
2023-05-09T10:35:11.985Z,9.87
2023-05-09T10:36:11.902Z,35.29
2023-05-09T10:37:11.989Z,32.92
2023-05-09T10:38:12.003Z,61.43
2023-05-09T10:39:11.869Z,69.31
2023-05-09T10:40:11.887Z,67.76
2023-05-09T10:41:11.872Z,45.40
2023-05-09T10:42:11.963Z,41.82
2023-05-09T10:43:11.852Z,34.71
2023-05-09T10:44:11.873Z,53.49
2023-05-09T10:45:11.936Z,49.58
2023-05-09T10:46:11.861Z,57.94
2023-05-09T10:47:11.805Z,47.51
2023-05-09T10:48:11.822Z,22.03
2023-05-09T10:49:11.781Z,25.00
2023-05-09T10:50:11.821Z,47.70
2023-05-09T10:51:11.832Z,70.06
2023-05-09T10:52:11.799Z,73.26
2023-05-09T10:53:11.881Z,87.14
2023-05-09T10:54:11.788Z,79.07
2023-05-09T10:55:11.778Z,80.62
2023-05-09T10:56:11.789Z,82.32
2023-05-09T10:57:11.862Z,91.45
2023-05-09T10:58:11.754Z,111.19
2023-05-09T10:59:11.732Z,128.24
2023-05-09T11:00:11.750Z,120.28
2023-05-09T11:01:11.768Z,98.17
2023-05-09T11:02:11.754Z,102.67
2023-05-09T11:03:11.821Z,94.54
2023-05-09T11:04:12.015Z,96.97
2023-05-09T11:05:11.790Z,86.85
2023-05-09T11:06:11.688Z,82.52
2023-05-09T11:07:11.811Z,75.40
2023-05-09T11:08:11.730Z,57.47
2023-05-09T11:09:11.840Z,61.37
2023-05-09T11:10:11.822Z,72.79
2023-05-09T11:11:11.785Z,89.30
2023-05-09T11:12:11.849Z,95.42
2023-05-09T11:13:11.945Z,102.43
2023-05-09T11:14:11.956Z,89.52
2023-05-09T11:15:11.873Z,93.99
2023-05-09T11:16:12.014Z,93.31
2023-05-09T11:17:12.250Z,123.33
2023-05-09T11:18:11.951Z,147.13
2023-05-09T11:19:11.964Z,173.78
2023-05-09T11:20:12.007Z,190.49
2023-05-09T11:21:11.985Z,189.71
2023-05-09T11:22:11.974Z,185.61
2023-05-09T11:23:12.013Z,193.06
2023-05-09T11:24:11.989Z,204.73
2023-05-09T11:25:12.231Z,202.48
2023-05-09T11:26:12.111Z,219.06
2023-05-09T11:27:12.050Z,224.76
2023-05-09T11:28:12.111Z,226.03
2023-05-09T11:29:12.138Z,228.92
2023-05-09T11:30:12.108Z,237.70
2023-05-09T11:31:12.124Z,242.47
2023-05-09T11:32:12.198Z,246.71
2023-05-09T11:33:12.199Z,249.14
2023-05-09T11:34:12.170Z,248.62
2023-05-09T11:35:12.296Z,250.04
2023-05-09T11:36:12.289Z,250.00
2023-05-09T11:37:12.212Z,248.86
2023-05-09T11:38:14.034Z,248.56
2023-05-09T11:39:12.228Z,248.86
2023-05-09T11:40:12.308Z,249.17
2023-05-09T11:41:12.288Z,250.02
2023-05-09T11:42:12.228Z,250.43
2023-05-09T11:43:12.282Z,250.41
2023-05-09T11:44:12.210Z,228.95
2023-05-09T11:45:12.317Z,221.56
2023-05-09T11:46:12.238Z,236.81
2023-05-09T11:47:12.191Z,237.97
2023-05-09T11:48:12.210Z,235.16
2023-05-09T11:49:15.587Z,227.53
2023-05-09T11:50:12.158Z,228.09
2023-05-09T11:51:12.125Z,229.04
2023-05-09T11:52:12.173Z,232.82
2023-05-09T11:53:12.132Z,236.80
2023-05-09T11:54:12.099Z,242.04
2023-05-09T11:55:12.897Z,242.46
2023-05-09T11:56:12.111Z,215.04
2023-05-09T11:57:12.243Z,227.75
2023-05-09T11:58:12.134Z,238.39
2023-05-09T11:59:12.053Z,237.28
2023-05-09T12:00:12.089Z,242.65
2023-05-09T12:01:12.451Z,246.02
2023-05-09T12:02:12.149Z,234.79
2023-05-09T12:03:12.145Z,242.45
2023-05-09T12:04:12.242Z,248.99
2023-05-09T12:05:12.191Z,241.88
2023-05-09T12:06:12.016Z,249.07
2023-05-09T12:07:12.003Z,250.00
2023-05-09T12:08:11.996Z,239.50
2023-05-09T12:09:12.064Z,232.00
2023-05-09T12:10:12.004Z,229.21
2023-05-09T12:11:12.126Z,200.65
2023-05-09T12:12:12.080Z,192.21
2023-05-09T12:13:12.189Z,202.56
2023-05-09T12:14:12.168Z,181.21
2023-05-09T12:15:13.004Z,193.64
2023-05-09T12:16:12.235Z,160.38
2023-05-09T12:17:12.257Z,167.74
2023-05-09T12:18:12.281Z,163.41
2023-05-09T12:19:12.236Z,156.51
2023-05-09T12:20:12.295Z,93.56
2023-05-09T12:21:12.327Z,109.49
2023-05-09T12:22:12.298Z,76.20
2023-05-09T12:23:12.396Z,53.71
2023-05-09T12:24:12.409Z,39.89
2023-05-09T12:25:12.562Z,51.51
2023-05-09T12:26:12.411Z,27.63
2023-05-09T12:27:12.388Z,33.12
2023-05-09T12:28:12.349Z,46.60
2023-05-09T12:29:12.503Z,55.28
2023-05-09T12:30:12.400Z,35.32
2023-05-09T12:31:12.491Z,59.71
2023-05-09T12:32:12.446Z,58.39
2023-05-09T12:33:12.415Z,52.89
2023-05-09T12:34:12.467Z,28.24
2023-05-09T12:35:12.598Z,46.31
2023-05-09T12:36:12.440Z,49.25
2023-05-09T12:37:12.445Z,48.73
2023-05-09T12:38:12.482Z,39.59
2023-05-09T12:39:12.481Z,50.04
2023-05-09T12:40:12.776Z,27.55
2023-05-09T12:41:30.846Z,44.69
2023-05-09T12:42:13.482Z,44.92
2023-05-09T12:43:12.492Z,37.28
2023-05-09T12:44:12.542Z,38.54
2023-05-09T12:45:12.627Z,19.17
2023-05-09T12:46:12.513Z,29.59
2023-05-09T12:47:12.485Z,40.23
2023-05-09T12:48:12.453Z,31.53
2023-05-09T12:49:12.433Z,48.16
2023-05-09T12:50:12.444Z,44.82
2023-05-09T12:51:12.408Z,50.83
2023-05-09T12:52:12.424Z,50.80
2023-05-09T12:53:12.406Z,49.23
2023-05-09T12:54:12.426Z,48.45
2023-05-09T12:55:12.844Z,43.58
2023-05-09T12:56:12.567Z,37.62
2023-05-09T12:57:12.577Z,45.88
2023-05-09T12:58:12.603Z,36.93
2023-05-09T12:59:12.653Z,36.23
2023-05-09T13:00:12.800Z,37.88
2023-05-09T13:01:12.938Z,38.41
2023-05-09T13:02:12.877Z,32.51
2023-05-09T13:03:12.851Z,39.81
2023-05-09T13:04:13.080Z,28.43
2023-05-09T13:05:13.220Z,26.51
2023-05-09T13:06:12.917Z,17.20
2023-05-09T13:07:13.158Z,13.42
2023-05-09T13:08:13.019Z,47.62
2023-05-09T13:09:13.153Z,58.78
2023-05-09T13:10:13.111Z,58.52
2023-05-09T13:11:16.680Z,53.91
2023-05-09T13:12:13.172Z,47.77
2023-05-09T13:13:13.253Z,38.99
2023-05-09T13:14:13.160Z,33.12
2023-05-09T13:15:13.394Z,43.67
2023-05-09T13:16:15.761Z,46.91
2023-05-09T13:17:13.371Z,48.98
2023-05-09T13:18:13.165Z,46.19
2023-05-09T13:19:13.112Z,46.55
2023-05-09T13:20:13.514Z,47.46
2023-05-09T13:21:13.094Z,45.94
2023-05-09T13:22:13.218Z,45.80
2023-05-09T13:23:13.077Z,44.27
2023-05-09T13:24:13.069Z,47.35
2023-05-09T13:25:13.085Z,42.66
2023-05-09T13:26:13.139Z,37.50
2023-05-09T13:27:13.038Z,35.21
2023-05-09T13:28:13.025Z,32.58
2023-05-09T13:29:13.082Z,37.96
2023-05-09T13:30:13.272Z,32.11
2023-05-09T13:31:13.106Z,25.00
2023-05-09T13:32:13.039Z,32.66
2023-05-09T13:33:25.389Z,43.06
2023-05-09T13:34:13.998Z,35.56
2023-05-09T13:35:13.004Z,34.12
2023-05-09T13:36:13.044Z,30.24
2023-05-09T13:37:12.989Z,34.88
2023-05-09T13:38:12.934Z,32.94
2023-05-09T13:39:12.966Z,24.66
2023-05-09T13:40:13.193Z,30.32
2023-05-09T13:41:12.999Z,35.75
2023-05-09T13:42:12.899Z,25.49
2023-05-09T13:43:12.977Z,26.19
2023-05-09T13:44:13.041Z,25.00
2023-05-09T13:45:13.253Z,25.15
2023-05-09T13:46:13.153Z,32.91
2023-05-09T13:47:13.215Z,38.91
2023-05-09T13:48:13.289Z,38.47
2023-05-09T13:49:13.465Z,37.16
2023-05-09T13:50:13.428Z,28.52
2023-05-09T13:51:13.432Z,50.93
2023-05-09T13:52:13.510Z,37.42
2023-05-09T13:53:13.561Z,38.64
2023-05-09T13:54:13.572Z,40.95
2023-05-09T13:55:13.609Z,39.85
2023-05-09T13:56:13.747Z,39.96
2023-05-09T13:57:13.710Z,44.35
2023-05-09T13:58:13.808Z,32.12
2023-05-09T13:59:13.769Z,40.43
2023-05-09T14:00:15.700Z,44.07
2023-05-09T14:01:14.834Z,42.17
2023-05-09T14:02:14.016Z,66.07
2023-05-09T14:03:14.099Z,93.87
2023-05-09T14:04:14.170Z,101.13
2023-05-09T14:05:14.209Z,106.15
2023-05-09T14:06:15.441Z,101.67
2023-05-09T14:07:14.215Z,105.66
2023-05-09T14:08:14.313Z,116.10
2023-05-09T14:09:14.330Z,123.89
2023-05-09T14:10:14.386Z,133.23
2023-05-09T14:11:14.429Z,135.78
2023-05-09T14:12:15.531Z,137.68
2023-05-09T14:13:14.649Z,139.34
2023-05-09T14:14:14.581Z,136.28
2023-05-09T14:15:14.681Z,142.46
2023-05-09T14:16:14.715Z,145.02
2023-05-09T14:17:14.726Z,149.84
2023-05-09T14:18:17.760Z,148.26
2023-05-09T14:19:14.787Z,148.52
2023-05-09T14:20:14.880Z,149.27
2023-05-09T14:21:14.777Z,150.94
2023-05-09T14:22:14.770Z,154.14
2023-05-09T14:23:14.733Z,161.73
2023-05-09T14:24:16.303Z,162.99
2023-05-09T14:25:14.728Z,163.06
2023-05-09T14:26:14.687Z,167.21
2023-05-09T14:27:14.722Z,167.52
2023-05-09T14:28:14.831Z,170.35
2023-05-09T14:29:14.706Z,173.44
2023-05-09T14:30:14.839Z,175.35
2023-05-09T14:31:14.724Z,177.36
2023-05-09T14:32:14.699Z,177.79
2023-05-09T14:33:14.678Z,178.57
2023-05-09T14:34:14.661Z,180.77
2023-05-09T14:35:14.711Z,182.80
2023-05-09T14:36:14.682Z,184.94
2023-05-09T14:37:14.730Z,187.72
2023-05-09T14:38:14.627Z,189.48
2023-05-09T14:39:14.693Z,191.36
2023-05-09T14:40:15.258Z,194.96
2023-05-09T14:41:14.872Z,198.72
2023-05-09T14:42:14.734Z,204.84
2023-05-09T14:43:14.764Z,207.31
2023-05-09T14:44:14.896Z,210.60
2023-05-09T14:45:14.733Z,212.02
2023-05-09T14:46:14.732Z,212.27
2023-05-09T14:47:14.802Z,216.58
2023-05-09T14:48:16.065Z,218.63
2023-05-09T14:49:14.859Z,219.66
2023-05-09T14:50:14.977Z,221.86
2023-05-09T14:51:14.842Z,223.22
2023-05-09T14:52:14.871Z,224.84
2023-05-09T14:53:14.946Z,225.13
2023-05-09T14:54:14.853Z,228.01
2023-05-09T14:55:14.872Z,228.75
2023-05-09T14:56:15.053Z,228.81
2023-05-09T14:57:14.941Z,230.95
2023-05-09T14:58:14.959Z,229.78
2023-05-09T14:59:14.969Z,230.96
2023-05-09T15:00:21.325Z,231.97
2023-05-09T15:01:15.977Z,232.13
2023-05-09T15:02:15.015Z,232.45
2023-05-09T15:03:14.959Z,232.90
2023-05-09T15:04:15.021Z,232.20
2023-05-09T15:05:14.926Z,234.51
2023-05-09T15:06:15.549Z,234.07
2023-05-09T15:07:14.937Z,234.24
2023-05-09T15:08:14.923Z,235.06
2023-05-09T15:09:14.994Z,233.52
2023-05-09T15:10:15.236Z,235.35
2023-05-09T15:11:14.895Z,235.37
2023-05-09T15:12:14.878Z,233.35
2023-05-09T15:13:15.008Z,234.77
2023-05-09T15:14:14.945Z,233.68
2023-05-09T15:15:14.900Z,235.13
2023-05-09T15:16:14.929Z,234.77
2023-05-09T15:17:14.877Z,236.29
2023-05-09T15:18:14.867Z,235.40
2023-05-09T15:19:14.867Z,235.53
2023-05-09T15:20:15.162Z,235.41
2023-05-09T15:21:14.856Z,235.06
2023-05-09T15:22:14.840Z,235.54
2023-05-09T15:23:14.893Z,236.23
2023-05-09T15:24:14.824Z,235.46
2023-05-09T15:25:14.926Z,235.04
2023-05-09T15:26:14.791Z,235.88
2023-05-09T15:27:14.861Z,235.41
2023-05-09T15:28:14.791Z,234.60
2023-05-09T15:29:14.832Z,235.91
2023-05-09T15:30:14.951Z,235.07
2023-05-09T15:31:14.797Z,236.01
2023-05-09T15:32:14.800Z,235.91
2023-05-09T15:33:14.818Z,235.24
2023-05-09T15:34:14.804Z,236.22
2023-05-09T15:35:14.828Z,237.36
2023-05-09T15:36:14.849Z,236.74
2023-05-09T15:37:14.816Z,236.58
2023-05-09T15:38:14.855Z,236.69
2023-05-09T15:39:14.833Z,237.17
2023-05-09T15:40:15.123Z,235.55
2023-05-09T15:41:14.955Z,237.02
2023-05-09T15:42:14.857Z,234.93
2023-05-09T15:43:14.883Z,235.91
2023-05-09T15:44:14.910Z,235.73
2023-05-09T15:45:14.883Z,234.91
2023-05-09T15:46:14.978Z,235.21
2023-05-09T15:47:14.874Z,235.08
2023-05-09T15:48:14.912Z,236.28
2023-05-09T15:49:14.923Z,235.41
2023-05-09T15:50:15.157Z,235.54
2023-05-09T15:51:15.032Z,235.10
2023-05-09T15:52:14.951Z,234.98
2023-05-09T15:53:15.001Z,235.51
2023-05-09T15:54:15.020Z,235.85
2023-05-09T15:55:15.098Z,235.64
2023-05-09T15:56:15.060Z,236.03
2023-05-09T15:57:15.135Z,235.98
2023-05-09T15:58:15.117Z,235.67
2023-05-09T15:59:15.098Z,236.26
2023-05-09T16:00:15.269Z,233.99
2023-05-09T16:01:15.140Z,235.03
2023-05-09T16:02:15.171Z,235.62
2023-05-09T16:03:15.267Z,236.98
2023-05-09T16:04:15.201Z,237.20
2023-05-09T16:05:15.189Z,235.94
2023-05-09T16:06:15.181Z,235.43
2023-05-09T16:07:15.223Z,235.10
2023-05-09T16:08:15.294Z,236.49
2023-05-09T16:09:15.274Z,236.75
2023-05-09T16:10:15.413Z,235.73
2023-05-09T16:11:15.278Z,236.19
2023-05-09T16:12:15.259Z,236.15
2023-05-09T16:13:15.442Z,235.63
2023-05-09T16:14:15.420Z,235.47
2023-05-09T16:15:15.354Z,236.39
2023-05-09T16:16:15.394Z,235.75
2023-05-09T16:17:15.369Z,237.07
2023-05-09T16:18:15.438Z,236.36
2023-05-09T16:19:15.442Z,236.43
2023-05-09T16:20:15.638Z,234.84
2023-05-09T16:21:15.533Z,235.69
2023-05-09T16:22:15.528Z,235.87
2023-05-09T16:23:15.543Z,235.82
2023-05-09T16:24:15.529Z,234.01
2023-05-09T16:25:15.561Z,235.56
2023-05-09T16:26:15.641Z,236.45
2023-05-09T16:27:15.641Z,236.33
2023-05-09T16:28:15.634Z,236.36
2023-05-09T16:29:15.762Z,235.86
2023-05-09T16:30:16.011Z,234.50
2023-05-09T16:31:15.737Z,236.09
2023-05-09T16:32:15.750Z,236.43
2023-05-09T16:33:15.815Z,235.21
2023-05-09T16:34:15.790Z,235.26
2023-05-09T16:35:15.817Z,236.15
2023-05-09T16:36:15.891Z,235.85
2023-05-09T16:37:15.839Z,235.51
2023-05-09T16:38:15.898Z,235.06
2023-05-09T16:39:15.878Z,234.88
2023-05-09T16:40:16.142Z,234.51
2023-05-09T16:41:15.996Z,234.83
2023-05-09T16:42:15.994Z,234.30
2023-05-09T16:43:16.010Z,233.31
2023-05-09T16:44:16.057Z,233.82
2023-05-09T16:45:16.129Z,234.21
2023-05-09T16:46:16.170Z,234.24
2023-05-09T16:47:16.069Z,234.71
2023-05-09T16:48:16.168Z,233.82
2023-05-09T16:49:16.129Z,233.90
2023-05-09T16:50:16.468Z,233.69
2023-05-09T16:51:16.172Z,232.89
2023-05-09T16:52:16.227Z,234.23
2023-05-09T16:53:16.259Z,232.20
2023-05-09T16:54:16.236Z,234.27
2023-05-09T16:55:16.360Z,232.61
2023-05-09T16:56:16.364Z,234.68
2023-05-09T16:57:16.341Z,233.20
2023-05-09T16:58:16.405Z,233.16
2023-05-09T16:59:16.389Z,233.71
2023-05-09T17:00:24.052Z,234.00
